Terminal Aerodrome Forecast
Issued by NWS

Home | Current Version | Previous Version | Text Only | Print | Product List | Glossary Off
Versions: 1 2 3 4 5 6 7 8 9 10 11 12 13 14 15

000
FTUS43 KABR 040101 AAA
TAFPIR
TAF AMD
KPIR 040101Z 0401/0424 01011KT P6SM SKC
     FM040200 36007KT P6SM SKC
     FM041100 VRB03KT P6SM SKC=

USA.gov is the U.S. government's official web portal to all federal, state and local government web resources and services.